Portada
METAR-TAF:

METAR-TAF

Aeroports :

Mécheria, Algèria

latitud: 34-56N, longitud: 000-26W, altitud: 1149 m

METAR: manca

Hora: 20:52 (19:52 UTC)

Pronòstic

L'informe es va fer fa 20 hores i 52 minuts, a les 23:00 UTC
Pronòstic vàlid del 21 a les 00 UTC al 21 a les 09 UTC
Vent 14 kt del Nord
Visibilitat 10 km o més
Núvols disperses a una alçada de 2600 ft, Cumulus congestus.
Núvols disperses a una alçada de 10000 ft
Evolucionant progressivament
l' 21 a les 00 UTC al 21 a les 03 UTC
Vent 2 kt amb direcció variable
Probabilitat 30% :
Temporalment
l' 21 a les 00 UTC al 21 a les 05 UTC
Núvols disperses a una alçada de 2600 ft
Escasses núvols a una alçada de 3000 ft, Cumulonimbus.
Cel ennuvolat a una alçada de 10000 ft
tempesta, pluja

TAF: DAAY 202300Z 2100/2109 01014KT 9999 SCT026TCU SCT100 BECMG 2100/2103 VRB02KT PROB30 TEMPO 2100/2105 -TSRA SCT026 FEW030CB BKN100

Observacions i pronòstics meteorològics de més de 4000 aeroports (METAR i TAF).

Les estacions disponibles són els punts grocs i vermells al mapa.

Posi el ratolí al punt desitjat per veure el nom de l'estació.

Feu clic per veure les observacions i els pronòstics meteorològics.

Per canviar el mapa: feu clic els botons verds amb una creu de color negre per apropar; al botó verd amb un guió per allunyar la imatge; o en les fletxes verdes per a mapes adjacents.


METAR-TAF: